sensor_id;sensor_type;location;lat;lon;timestamp;P1;durP1;ratioP1;P2;durP2;ratioP2
53401;SDS011;39295;45.534;20.034;2022-12-07T00:01:43;47.22;;;26.08;;
53401;SDS011;39295;45.534;20.034;2022-12-07T00:04:10;66.45;;;25.65;;
53401;SDS011;39295;45.534;20.034;2022-12-07T00:06:37;39.80;;;22.63;;
53401;SDS011;39295;45.534;20.034;2022-12-07T00:09:04;47.67;;;25.88;;
53401;SDS011;39295;45.534;20.034;2022-12-07T00:11:30;56.50;;;27.88;;
53401;SDS011;39295;45.534;20.034;2022-12-07T00:13:57;127.13;;;31.38;;
53401;SDS011;39295;45.534;20.034;2022-12-07T00:19:27;61.47;;;27.40;;
53401;SDS011;39295;45.534;20.034;2022-12-07T00:21:53;42.00;;;19.85;;
53401;SDS011;39295;45.534;20.034;2022-12-07T00:24:19;37.83;;;16.83;;
53401;SDS011;39295;45.534;20.034;2022-12-07T00:26:46;34.90;;;14.75;;
53401;SDS011;39295;45.534;20.034;2022-12-07T00:29:16;19.20;;;12.38;;
53401;SDS011;39295;45.534;20.034;2022-12-07T00:31:43;36.03;;;12.15;;
53401;SDS011;39295;45.534;20.034;2022-12-07T00:34:13;54.42;;;11.73;;
53401;SDS011;39295;45.534;20.034;2022-12-07T00:36:39;13.52;;;9.85;;
53401;SDS011;39295;45.534;20.034;2022-12-07T00:39:05;15.10;;;10.18;;
53401;SDS011;39295;45.534;20.034;2022-12-07T00:41:31;54.35;;;11.98;;
53401;SDS011;39295;45.534;20.034;2022-12-07T00:43:58;14.23;;;9.90;;
53401;SDS011;39295;45.534;20.034;2022-12-07T00:46:24;25.15;;;10.40;;
53401;SDS011;39295;45.534;20.034;2022-12-07T00:48:50;15.55;;;10.55;;
53401;SDS011;39295;45.534;20.034;2022-12-07T00:51:18;17.13;;;10.65;;
53401;SDS011;39295;45.534;20.034;2022-12-07T00:53:44;16.88;;;10.98;;
53401;SDS011;39295;45.534;20.034;2022-12-07T00:58:36;18.25;;;12.05;;
53401;SDS011;39295;45.534;20.034;2022-12-07T01:01:03;17.27;;;10.93;;
53401;SDS011;39295;45.534;20.034;2022-12-07T01:03:29;17.50;;;11.07;;
53401;SDS011;39295;45.534;20.034;2022-12-07T01:05:56;45.50;;;11.50;;
53401;SDS011;39295;45.534;20.034;2022-12-07T01:08:23;18.42;;;12.00;;
53401;SDS011;39295;45.534;20.034;2022-12-07T01:10:56;17.88;;;11.05;;
53401;SDS011;39295;45.534;20.034;2022-12-07T01:13:22;24.48;;;13.63;;
53401;SDS011;39295;45.534;20.034;2022-12-07T01:15:48;21.95;;;13.73;;
53401;SDS011;39295;45.534;20.034;2022-12-07T01:23:25;48.20;;;14.07;;
53401;SDS011;39295;45.534;20.034;2022-12-07T01:25:57;26.40;;;14.68;;
53401;SDS011;39295;45.534;20.034;2022-12-07T01:28:24;47.42;;;13.70;;
53401;SDS011;39295;45.534;20.034;2022-12-07T01:34:12;56.70;;;13.13;;
53401;SDS011;39295;45.534;20.034;2022-12-07T01:36:38;158.43;;;15.30;;
53401;SDS011;39295;45.534;20.034;2022-12-07T01:39:05;80.25;;;13.63;;
53401;SDS011;39295;45.534;20.034;2022-12-07T01:41:33;32.03;;;12.23;;
53401;SDS011;39295;45.534;20.034;2022-12-07T01:49:45;25.38;;;14.65;;
53401;SDS011;39295;45.534;20.034;2022-12-07T01:52:17;17.77;;;11.82;;
53401;SDS011;39295;45.534;20.034;2022-12-07T01:54:46;17.63;;;12.02;;
53401;SDS011;39295;45.534;20.034;2022-12-07T01:57:13;18.83;;;12.52;;
53401;SDS011;39295;45.534;20.034;2022-12-07T01:59:41;15.60;;;11.50;;
53401;SDS011;39295;45.534;20.034;2022-12-07T02:02:10;18.42;;;11.75;;
53401;SDS011;39295;45.534;20.034;2022-12-07T02:04:37;18.00;;;12.02;;
53401;SDS011;39295;45.534;20.034;2022-12-07T02:07:03;21.17;;;12.55;;
53401;SDS011;39295;45.534;20.034;2022-12-07T02:09:30;22.73;;;12.93;;
53401;SDS011;39295;45.534;20.034;2022-12-07T02:11:56;39.38;;;17.70;;
53401;SDS011;39295;45.534;20.034;2022-12-07T02:14:23;30.25;;;16.15;;
53401;SDS011;39295;45.534;20.034;2022-12-07T02:30:28;22.25;;;10.50;;
53401;SDS011;39295;45.534;20.034;2022-12-07T02:32:57;17.00;;;10.32;;
53401;SDS011;39295;45.534;20.034;2022-12-07T02:35:42;12.70;;;9.63;;
53401;SDS011;39295;45.534;20.034;2022-12-07T02:40:39;13.98;;;9.60;;
53401;SDS011;39295;45.534;20.034;2022-12-07T02:45:44;16.33;;;10.85;;
53401;SDS011;39295;45.534;20.034;2022-12-07T02:48:29;43.22;;;15.30;;
53401;SDS011;39295;45.534;20.034;2022-12-07T02:50:56;46.03;;;16.08;;
53401;SDS011;39295;45.534;20.034;2022-12-07T02:53:31;32.45;;;14.75;;
53401;SDS011;39295;45.534;20.034;2022-12-07T02:55:57;22.60;;;10.80;;
53401;SDS011;39295;45.534;20.034;2022-12-07T03:06:52;14.50;;;9.50;;
53401;SDS011;39295;45.534;20.034;2022-12-07T03:09:25;20.10;;;11.00;;
53401;SDS011;39295;45.534;20.034;2022-12-07T03:12:13;19.42;;;11.18;;
53401;SDS011;39295;45.534;20.034;2022-12-07T03:14:42;14.90;;;9.63;;
53401;SDS011;39295;45.534;20.034;2022-12-07T03:17:13;15.57;;;10.15;;
53401;SDS011;39295;45.534;20.034;2022-12-07T03:19:41;19.10;;;10.18;;
53401;SDS011;39295;45.534;20.034;2022-12-07T03:22:09;15.73;;;10.57;;
53401;SDS011;39295;45.534;20.034;2022-12-07T03:24:39;12.57;;;8.73;;
53401;SDS011;39295;45.534;20.034;2022-12-07T03:27:09;12.18;;;8.43;;
53401;SDS011;39295;45.534;20.034;2022-12-07T03:29:38;14.00;;;10.23;;
53401;SDS011;39295;45.534;20.034;2022-12-07T03:37:25;11.70;;;8.95;;
53401;SDS011;39295;45.534;20.034;2022-12-07T03:40:02;10.80;;;8.32;;
53401;SDS011;39295;45.534;20.034;2022-12-07T03:42:29;12.50;;;8.27;;
53401;SDS011;39295;45.534;20.034;2022-12-07T03:44:56;12.20;;;8.60;;
53401;SDS011;39295;45.534;20.034;2022-12-07T03:47:37;10.85;;;8.77;;
53401;SDS011;39295;45.534;20.034;2022-12-07T03:50:18;13.38;;;9.38;;
53401;SDS011;39295;45.534;20.034;2022-12-07T03:52:54;13.10;;;10.32;;
53401;SDS011;39295;45.534;20.034;2022-12-07T03:55:29;13.63;;;9.95;;
53401;SDS011;39295;45.534;20.034;2022-12-07T03:57:57;13.43;;;9.73;;
53401;SDS011;39295;45.534;20.034;2022-12-07T04:00:24;15.75;;;10.82;;
53401;SDS011;39295;45.534;20.034;2022-12-07T04:02:52;15.63;;;10.23;;
53401;SDS011;39295;45.534;20.034;2022-12-07T04:05:18;13.80;;;10.32;;
53401;SDS011;39295;45.534;20.034;2022-12-07T04:07:44;12.50;;;9.35;;
53401;SDS011;39295;45.534;20.034;2022-12-07T04:10:10;11.13;;;9.50;;
53401;SDS011;39295;45.534;20.034;2022-12-07T04:12:37;12.52;;;9.65;;
53401;SDS011;39295;45.534;20.034;2022-12-07T04:15:03;14.07;;;10.30;;
53401;SDS011;39295;45.534;20.034;2022-12-07T04:20:33;16.38;;;10.95;;
53401;SDS011;39295;45.534;20.034;2022-12-07T04:22:59;18.25;;;11.20;;
53401;SDS011;39295;45.534;20.034;2022-12-07T04:25:25;28.98;;;18.63;;
53401;SDS011;39295;45.534;20.034;2022-12-07T04:27:51;23.38;;;16.67;;
53401;SDS011;39295;45.534;20.034;2022-12-07T04:30:18;24.45;;;16.90;;
53401;SDS011;39295;45.534;20.034;2022-12-07T04:35:29;23.42;;;16.70;;
53401;SDS011;39295;45.534;20.034;2022-12-07T04:37:55;25.33;;;16.98;;
53401;SDS011;39295;45.534;20.034;2022-12-07T04:40:21;21.48;;;14.80;;
53401;SDS011;39295;45.534;20.034;2022-12-07T04:42:47;21.40;;;14.48;;
53401;SDS011;39295;45.534;20.034;2022-12-07T04:45:13;19.70;;;13.63;;
53401;SDS011;39295;45.534;20.034;2022-12-07T04:50:43;29.48;;;15.05;;
53401;SDS011;39295;45.534;20.034;2022-12-07T04:53:09;380.05;;;96.72;;
53401;SDS011;39295;45.534;20.034;2022-12-07T04:55:35;409.35;;;102.45;;
53401;SDS011;39295;45.534;20.034;2022-12-07T04:58:01;252.63;;;66.25;;
53401;SDS011;39295;45.534;20.034;2022-12-07T05:00:27;170.00;;;48.75;;
53401;SDS011;39295;45.534;20.034;2022-12-07T05:02:53;140.68;;;52.35;;
53401;SDS011;39295;45.534;20.034;2022-12-07T05:05:19;156.65;;;60.00;;
53401;SDS011;39295;45.534;20.034;2022-12-07T05:07:45;115.93;;;46.30;;
53401;SDS011;39295;45.534;20.034;2022-12-07T05:10:12;88.20;;;35.50;;
53401;SDS011;39295;45.534;20.034;2022-12-07T05:12:38;49.85;;;24.65;;
53401;SDS011;39295;45.534;20.034;2022-12-07T05:15:04;36.38;;;19.42;;
53401;SDS011;39295;45.534;20.034;2022-12-07T05:17:30;31.13;;;18.83;;
53401;SDS011;39295;45.534;20.034;2022-12-07T05:19:56;33.17;;;20.33;;
53401;SDS011;39295;45.534;20.034;2022-12-07T05:22:22;34.90;;;21.65;;
53401;SDS011;39295;45.534;20.034;2022-12-07T05:24:52;33.10;;;21.40;;
53401;SDS011;39295;45.534;20.034;2022-12-07T05:27:19;36.75;;;22.58;;
53401;SDS011;39295;45.534;20.034;2022-12-07T05:29:45;34.67;;;20.13;;
53401;SDS011;39295;45.534;20.034;2022-12-07T05:32:11;31.08;;;19.70;;
53401;SDS011;39295;45.534;20.034;2022-12-07T05:34:37;34.97;;;21.15;;
53401;SDS011;39295;45.534;20.034;2022-12-07T05:37:04;27.77;;;18.05;;
53401;SDS011;39295;45.534;20.034;2022-12-07T05:39:30;24.65;;;16.90;;
53401;SDS011;39295;45.534;20.034;2022-12-07T05:41:56;32.83;;;19.75;;
53401;SDS011;39295;45.534;20.034;2022-12-07T05:44:37;33.83;;;18.95;;
53401;SDS011;39295;45.534;20.034;2022-12-07T05:47:06;26.10;;;15.68;;
53401;SDS011;39295;45.534;20.034;2022-12-07T05:49:32;25.27;;;14.32;;
53401;SDS011;39295;45.534;20.034;2022-12-07T05:51:58;32.20;;;18.50;;
53401;SDS011;39295;45.534;20.034;2022-12-07T05:54:24;40.78;;;22.73;;
53401;SDS011;39295;45.534;20.034;2022-12-07T05:56:51;32.72;;;19.48;;
53401;SDS011;39295;45.534;20.034;2022-12-07T05:59:17;27.58;;;15.93;;
53401;SDS011;39295;45.534;20.034;2022-12-07T06:04:19;133.43;;;45.53;;
53401;SDS011;39295;45.534;20.034;2022-12-07T06:06:45;119.80;;;43.72;;
53401;SDS011;39295;45.534;20.034;2022-12-07T06:09:11;73.68;;;33.25;;
53401;SDS011;39295;45.534;20.034;2022-12-07T06:11:38;90.45;;;40.15;;
53401;SDS011;39295;45.534;20.034;2022-12-07T06:14:23;70.22;;;34.20;;
53401;SDS011;39295;45.534;20.034;2022-12-07T06:17:05;71.95;;;36.45;;
53401;SDS011;39295;45.534;20.034;2022-12-07T06:19:31;61.28;;;33.22;;
53401;SDS011;39295;45.534;20.034;2022-12-07T06:21:57;62.00;;;33.38;;
53401;SDS011;39295;45.534;20.034;2022-12-07T06:24:24;56.38;;;30.02;;
53401;SDS011;39295;45.534;20.034;2022-12-07T06:26:50;44.50;;;24.90;;
53401;SDS011;39295;45.534;20.034;2022-12-07T06:29:17;35.83;;;21.35;;
53401;SDS011;39295;45.534;20.034;2022-12-07T06:31:43;44.25;;;24.25;;
53401;SDS011;39295;45.534;20.034;2022-12-07T06:34:11;37.88;;;22.83;;
53401;SDS011;39295;45.534;20.034;2022-12-07T06:36:37;37.17;;;23.17;;
53401;SDS011;39295;45.534;20.034;2022-12-07T06:39:03;30.67;;;19.55;;
53401;SDS011;39295;45.534;20.034;2022-12-07T06:41:29;31.50;;;20.38;;
53401;SDS011;39295;45.534;20.034;2022-12-07T06:43:55;30.13;;;18.83;;
53401;SDS011;39295;45.534;20.034;2022-12-07T06:46:22;40.60;;;21.27;;
53401;SDS011;39295;45.534;20.034;2022-12-07T06:48:48;38.65;;;22.42;;
53401;SDS011;39295;45.534;20.034;2022-12-07T06:51:14;41.45;;;23.08;;
53401;SDS011;39295;45.534;20.034;2022-12-07T06:53:40;40.15;;;25.33;;
53401;SDS011;39295;45.534;20.034;2022-12-07T06:56:07;38.20;;;21.85;;
53401;SDS011;39295;45.534;20.034;2022-12-07T06:58:33;42.08;;;22.70;;
53401;SDS011;39295;45.534;20.034;2022-12-07T07:00:59;39.45;;;21.25;;
53401;SDS011;39295;45.534;20.034;2022-12-07T07:03:25;29.25;;;18.42;;
53401;SDS011;39295;45.534;20.034;2022-12-07T07:05:51;32.42;;;19.63;;
53401;SDS011;39295;45.534;20.034;2022-12-07T07:08:17;36.70;;;20.30;;
53401;SDS011;39295;45.534;20.034;2022-12-07T07:10:43;34.67;;;20.50;;
53401;SDS011;39295;45.534;20.034;2022-12-07T07:13:09;32.92;;;19.70;;
53401;SDS011;39295;45.534;20.034;2022-12-07T07:15:37;29.42;;;19.08;;
53401;SDS011;39295;45.534;20.034;2022-12-07T07:18:03;28.25;;;17.77;;
53401;SDS011;39295;45.534;20.034;2022-12-07T07:20:29;28.92;;;18.35;;
53401;SDS011;39295;45.534;20.034;2022-12-07T07:22:55;26.17;;;16.50;;
53401;SDS011;39295;45.534;20.034;2022-12-07T07:25:22;24.92;;;17.30;;
53401;SDS011;39295;45.534;20.034;2022-12-07T07:27:48;26.83;;;16.80;;
53401;SDS011;39295;45.534;20.034;2022-12-07T07:30:14;24.95;;;16.30;;
53401;SDS011;39295;45.534;20.034;2022-12-07T07:32:40;25.67;;;15.43;;
53401;SDS011;39295;45.534;20.034;2022-12-07T07:35:06;20.67;;;14.10;;
53401;SDS011;39295;45.534;20.034;2022-12-07T07:37:32;19.75;;;14.15;;
53401;SDS011;39295;45.534;20.034;2022-12-07T07:39:58;24.25;;;15.05;;
53401;SDS011;39295;45.534;20.034;2022-12-07T07:42:27;19.90;;;13.93;;
53401;SDS011;39295;45.534;20.034;2022-12-07T07:44:53;21.38;;;14.15;;
53401;SDS011;39295;45.534;20.034;2022-12-07T07:47:19;25.33;;;16.17;;
53401;SDS011;39295;45.534;20.034;2022-12-07T07:49:45;22.50;;;14.30;;
53401;SDS011;39295;45.534;20.034;2022-12-07T07:52:11;25.48;;;15.18;;
53401;SDS011;39295;45.534;20.034;2022-12-07T07:54:38;25.40;;;15.63;;
53401;SDS011;39295;45.534;20.034;2022-12-07T07:57:04;22.38;;;14.77;;
53401;SDS011;39295;45.534;20.034;2022-12-07T07:59:30;24.65;;;16.08;;
53401;SDS011;39295;45.534;20.034;2022-12-07T08:01:56;24.42;;;15.65;;
53401;SDS011;39295;45.534;20.034;2022-12-07T08:04:22;24.42;;;16.65;;
53401;SDS011;39295;45.534;20.034;2022-12-07T08:06:48;24.60;;;15.90;;
53401;SDS011;39295;45.534;20.034;2022-12-07T08:09:14;22.73;;;15.63;;
53401;SDS011;39295;45.534;20.034;2022-12-07T08:11:40;27.23;;;17.90;;
53401;SDS011;39295;45.534;20.034;2022-12-07T08:14:06;34.05;;;20.30;;
53401;SDS011;39295;45.534;20.034;2022-12-07T08:16:32;37.15;;;21.17;;
53401;SDS011;39295;45.534;20.034;2022-12-07T08:18:58;33.53;;;19.33;;
53401;SDS011;39295;45.534;20.034;2022-12-07T08:21:24;29.88;;;18.70;;
53401;SDS011;39295;45.534;20.034;2022-12-07T08:23:50;28.90;;;18.40;;
53401;SDS011;39295;45.534;20.034;2022-12-07T08:26:17;26.98;;;16.50;;
53401;SDS011;39295;45.534;20.034;2022-12-07T08:28:43;31.77;;;17.88;;
53401;SDS011;39295;45.534;20.034;2022-12-07T08:31:14;25.83;;;18.27;;
53401;SDS011;39295;45.534;20.034;2022-12-07T08:33:40;34.72;;;18.85;;
53401;SDS011;39295;45.534;20.034;2022-12-07T08:36:07;39.20;;;24.27;;
53401;SDS011;39295;45.534;20.034;2022-12-07T08:38:34;50.00;;;34.38;;
53401;SDS011;39295;45.534;20.034;2022-12-07T08:41:00;53.25;;;34.88;;
53401;SDS011;39295;45.534;20.034;2022-12-07T08:43:26;40.10;;;24.83;;
53401;SDS011;39295;45.534;20.034;2022-12-07T08:48:24;31.92;;;20.77;;
53401;SDS011;39295;45.534;20.034;2022-12-07T08:50:51;47.63;;;28.73;;
53401;SDS011;39295;45.534;20.034;2022-12-07T08:53:17;71.65;;;37.58;;
53401;SDS011;39295;45.534;20.034;2022-12-07T08:55:44;60.20;;;33.85;;
53401;SDS011;39295;45.534;20.034;2022-12-07T08:58:10;47.65;;;27.23;;
53401;SDS011;39295;45.534;20.034;2022-12-07T09:00:36;41.95;;;24.98;;
53401;SDS011;39295;45.534;20.034;2022-12-07T09:03:03;36.60;;;22.63;;
53401;SDS011;39295;45.534;20.034;2022-12-07T09:05:29;40.88;;;24.65;;
53401;SDS011;39295;45.534;20.034;2022-12-07T09:07:55;203.50;;;118.90;;
53401;SDS011;39295;45.534;20.034;2022-12-07T09:10:23;75.57;;;44.53;;
53401;SDS011;39295;45.534;20.034;2022-12-07T09:12:49;101.03;;;61.15;;
53401;SDS011;39295;45.534;20.034;2022-12-07T09:15:15;277.08;;;149.88;;
53401;SDS011;39295;45.534;20.034;2022-12-07T09:17:41;334.83;;;132.82;;
53401;SDS011;39295;45.534;20.034;2022-12-07T09:20:07;224.48;;;91.13;;
53401;SDS011;39295;45.534;20.034;2022-12-07T09:22:33;268.83;;;115.47;;
53401;SDS011;39295;45.534;20.034;2022-12-07T09:24:59;155.07;;;66.43;;
53401;SDS011;39295;45.534;20.034;2022-12-07T09:27:25;224.15;;;97.60;;
53401;SDS011;39295;45.534;20.034;2022-12-07T09:29:52;578.55;;;292.05;;
53401;SDS011;39295;45.534;20.034;2022-12-07T09:32:18;535.78;;;242.93;;
53401;SDS011;39295;45.534;20.034;2022-12-07T09:34:44;320.13;;;125.82;;
53401;SDS011;39295;45.534;20.034;2022-12-07T09:37:10;858.80;;;392.52;;
53401;SDS011;39295;45.534;20.034;2022-12-07T09:39:39;695.83;;;307.17;;
53401;SDS011;39295;45.534;20.034;2022-12-07T09:42:06;189.40;;;72.65;;
53401;SDS011;39295;45.534;20.034;2022-12-07T09:44:33;1080.30;;;499.02;;
53401;SDS011;39295;45.534;20.034;2022-12-07T09:47:00;353.70;;;143.38;;
53401;SDS011;39295;45.534;20.034;2022-12-07T09:49:27;933.53;;;446.85;;
53401;SDS011;39295;45.534;20.034;2022-12-07T09:54:26;298.77;;;137.77;;
53401;SDS011;39295;45.534;20.034;2022-12-07T09:56:52;169.95;;;80.55;;
53401;SDS011;39295;45.534;20.034;2022-12-07T09:59:18;118.90;;;62.70;;
53401;SDS011;39295;45.534;20.034;2022-12-07T10:01:46;224.15;;;113.57;;
53401;SDS011;39295;45.534;20.034;2022-12-07T10:04:33;687.15;;;371.90;;
53401;SDS011;39295;45.534;20.034;2022-12-07T10:06:59;514.67;;;250.55;;
53401;SDS011;39295;45.534;20.034;2022-12-07T10:09:25;807.72;;;419.60;;
53401;SDS011;39295;45.534;20.034;2022-12-07T10:15:04;169.80;;;76.15;;
53401;SDS011;39295;45.534;20.034;2022-12-07T10:17:34;550.15;;;255.23;;
53401;SDS011;39295;45.534;20.034;2022-12-07T10:22:35;96.13;;;44.55;;
53401;SDS011;39295;45.534;20.034;2022-12-07T10:25:24;290.58;;;117.15;;
53401;SDS011;39295;45.534;20.034;2022-12-07T10:27:57;204.38;;;87.18;;
53401;SDS011;39295;45.534;20.034;2022-12-07T10:30:24;241.82;;;100.97;;
53401;SDS011;39295;45.534;20.034;2022-12-07T10:32:50;275.55;;;113.93;;
53401;SDS011;39295;45.534;20.034;2022-12-07T10:37:42;230.27;;;97.85;;
53401;SDS011;39295;45.534;20.034;2022-12-07T10:43:03;324.45;;;136.07;;
53401;SDS011;39295;45.534;20.034;2022-12-07T10:45:30;280.15;;;117.47;;
53401;SDS011;39295;45.534;20.034;2022-12-07T11:06:35;562.95;;;260.90;;
53401;SDS011;39295;45.534;20.034;2022-12-07T11:11:32;518.47;;;242.30;;
53401;SDS011;39295;45.534;20.034;2022-12-07T11:16:34;183.95;;;78.38;;
53401;SDS011;39295;45.534;20.034;2022-12-07T11:24:01;85.22;;;40.05;;
53401;SDS011;39295;45.534;20.034;2022-12-07T11:32:13;77.05;;;38.10;;
53401;SDS011;39295;45.534;20.034;2022-12-07T11:34:57;160.07;;;69.55;;
53401;SDS011;39295;45.534;20.034;2022-12-07T11:37:26;106.50;;;51.70;;
53401;SDS011;39295;45.534;20.034;2022-12-07T11:39:55;85.07;;;39.17;;
53401;SDS011;39295;45.534;20.034;2022-12-07T11:42:27;86.50;;;34.63;;
53401;SDS011;39295;45.534;20.034;2022-12-07T11:55:45;574.10;;;248.23;;
53401;SDS011;39295;45.534;20.034;2022-12-07T12:00:39;323.75;;;125.03;;
53401;SDS011;39295;45.534;20.034;2022-12-07T12:03:09;528.80;;;217.60;;
53401;SDS011;39295;45.534;20.034;2022-12-07T12:05:37;584.72;;;234.15;;
53401;SDS011;39295;45.534;20.034;2022-12-07T12:08:21;426.92;;;159.63;;
53401;SDS011;39295;45.534;20.034;2022-12-07T12:18:36;145.65;;;62.55;;
53401;SDS011;39295;45.534;20.034;2022-12-07T12:21:10;136.45;;;58.70;;
53401;SDS011;39295;45.534;20.034;2022-12-07T12:26:17;58.97;;;33.08;;
53401;SDS011;39295;45.534;20.034;2022-12-07T12:28:54;93.25;;;42.58;;
53401;SDS011;39295;45.534;20.034;2022-12-07T12:33:59;102.45;;;41.13;;
53401;SDS011;39295;45.534;20.034;2022-12-07T12:46:51;127.15;;;52.85;;
53401;SDS011;39295;45.534;20.034;2022-12-07T12:59:29;331.77;;;138.50;;
53401;SDS011;39295;45.534;20.034;2022-12-07T13:01:56;469.80;;;212.93;;
53401;SDS011;39295;45.534;20.034;2022-12-07T13:10:02;192.30;;;82.95;;
53401;SDS011;39295;45.534;20.034;2022-12-07T13:12:28;237.68;;;102.25;;
53401;SDS011;39295;45.534;20.034;2022-12-07T13:14:58;289.92;;;115.47;;
53401;SDS011;39295;45.534;20.034;2022-12-07T13:18:21;192.70;;;77.38;;
53401;SDS011;39295;45.534;20.034;2022-12-07T13:20:39;274.67;;;117.05;;
53401;SDS011;39295;45.534;20.034;2022-12-07T13:22:59;556.38;;;265.67;;
53401;SDS011;39295;45.534;20.034;2022-12-07T13:25:33;456.85;;;194.85;;
53401;SDS011;39295;45.534;20.034;2022-12-07T13:28:15;290.70;;;121.20;;
53401;SDS011;39295;45.534;20.034;2022-12-07T13:31:04;315.45;;;133.82;;
53401;SDS011;39295;45.534;20.034;2022-12-07T13:33:28;218.02;;;95.13;;
53401;SDS011;39295;45.534;20.034;2022-12-07T13:35:55;339.02;;;151.80;;
53401;SDS011;39295;45.534;20.034;2022-12-07T13:38:34;258.02;;;113.88;;
53401;SDS011;39295;45.534;20.034;2022-12-07T13:43:28;287.65;;;135.93;;
53401;SDS011;39295;45.534;20.034;2022-12-07T13:45:57;246.68;;;117.65;;
53401;SDS011;39295;45.534;20.034;2022-12-07T13:48:32;319.92;;;150.07;;
53401;SDS011;39295;45.534;20.034;2022-12-07T13:50:59;573.50;;;294.08;;
53401;SDS011;39295;45.534;20.034;2022-12-07T13:53:26;291.55;;;133.20;;
53401;SDS011;39295;45.534;20.034;2022-12-07T13:55:55;205.38;;;98.18;;
53401;SDS011;39295;45.534;20.034;2022-12-07T13:58:21;228.15;;;107.40;;
53401;SDS011;39295;45.534;20.034;2022-12-07T14:00:48;111.35;;;54.45;;
53401;SDS011;39295;45.534;20.034;2022-12-07T14:05:40;96.18;;;44.05;;
53401;SDS011;39295;45.534;20.034;2022-12-07T14:15:59;50.50;;;26.83;;
53401;SDS011;39295;45.534;20.034;2022-12-07T14:18:36;34.72;;;19.88;;
53401;SDS011;39295;45.534;20.034;2022-12-07T14:21:03;48.83;;;25.45;;
53401;SDS011;39295;45.534;20.034;2022-12-07T14:23:29;37.60;;;20.58;;
53401;SDS011;39295;45.534;20.034;2022-12-07T14:26:04;44.03;;;24.90;;
53401;SDS011;39295;45.534;20.034;2022-12-07T14:28:32;45.63;;;27.65;;
53401;SDS011;39295;45.534;20.034;2022-12-07T14:30:58;40.38;;;25.27;;
53401;SDS011;39295;45.534;20.034;2022-12-07T14:33:25;52.58;;;31.50;;
53401;SDS011;39295;45.534;20.034;2022-12-07T14:35:51;36.75;;;22.70;;
53401;SDS011;39295;45.534;20.034;2022-12-07T14:38:20;33.53;;;20.60;;
53401;SDS011;39295;45.534;20.034;2022-12-07T14:40:47;27.83;;;19.15;;
53401;SDS011;39295;45.534;20.034;2022-12-07T14:43:14;36.55;;;21.10;;
53401;SDS011;39295;45.534;20.034;2022-12-07T14:45:41;38.33;;;22.55;;
53401;SDS011;39295;45.534;20.034;2022-12-07T14:48:07;53.53;;;28.90;;
53401;SDS011;39295;45.534;20.034;2022-12-07T14:50:39;50.55;;;28.75;;
53401;SDS011;39295;45.534;20.034;2022-12-07T14:53:11;46.90;;;28.95;;
53401;SDS011;39295;45.534;20.034;2022-12-07T14:55:38;98.45;;;52.13;;
53401;SDS011;39295;45.534;20.034;2022-12-07T14:58:04;89.75;;;48.95;;
53401;SDS011;39295;45.534;20.034;2022-12-07T15:00:30;54.28;;;33.15;;
53401;SDS011;39295;45.534;20.034;2022-12-07T15:02:57;44.97;;;29.15;;
53401;SDS011;39295;45.534;20.034;2022-12-07T15:05:23;68.93;;;34.85;;
53401;SDS011;39295;45.534;20.034;2022-12-07T15:07:49;95.80;;;41.97;;
53401;SDS011;39295;45.534;20.034;2022-12-07T15:10:18;62.33;;;35.50;;
53401;SDS011;39295;45.534;20.034;2022-12-07T15:12:44;61.47;;;31.52;;
53401;SDS011;39295;45.534;20.034;2022-12-07T15:15:10;43.15;;;28.58;;
53401;SDS011;39295;45.534;20.034;2022-12-07T15:17:36;49.60;;;27.38;;
53401;SDS011;39295;45.534;20.034;2022-12-07T15:20:03;35.28;;;23.98;;
53401;SDS011;39295;45.534;20.034;2022-12-07T15:22:29;38.38;;;24.60;;
53401;SDS011;39295;45.534;20.034;2022-12-07T15:24:56;41.90;;;24.95;;
53401;SDS011;39295;45.534;20.034;2022-12-07T15:27:22;39.60;;;25.80;;
53401;SDS011;39295;45.534;20.034;2022-12-07T15:29:48;33.80;;;23.15;;
53401;SDS011;39295;45.534;20.034;2022-12-07T15:32:14;28.10;;;19.77;;
53401;SDS011;39295;45.534;20.034;2022-12-07T15:34:40;27.38;;;18.08;;
53401;SDS011;39295;45.534;20.034;2022-12-07T15:37:07;26.20;;;19.35;;
53401;SDS011;39295;45.534;20.034;2022-12-07T15:39:33;31.75;;;20.63;;
53401;SDS011;39295;45.534;20.034;2022-12-07T15:41:59;30.85;;;21.05;;
53401;SDS011;39295;45.534;20.034;2022-12-07T15:44:25;44.97;;;28.67;;
53401;SDS011;39295;45.534;20.034;2022-12-07T15:47:10;58.45;;;35.30;;
53401;SDS011;39295;45.534;20.034;2022-12-07T15:49:36;54.70;;;34.17;;
53401;SDS011;39295;45.534;20.034;2022-12-07T15:52:02;47.10;;;29.17;;
53401;SDS011;39295;45.534;20.034;2022-12-07T15:54:28;38.45;;;25.50;;
53401;SDS011;39295;45.534;20.034;2022-12-07T15:56:55;33.53;;;22.52;;
53401;SDS011;39295;45.534;20.034;2022-12-07T15:59:22;34.15;;;22.38;;
53401;SDS011;39295;45.534;20.034;2022-12-07T16:01:48;37.72;;;23.83;;
53401;SDS011;39295;45.534;20.034;2022-12-07T16:04:14;88.07;;;39.65;;
53401;SDS011;39295;45.534;20.034;2022-12-07T16:06:41;212.70;;;78.38;;
53401;SDS011;39295;45.534;20.034;2022-12-07T16:09:07;130.27;;;50.28;;
53401;SDS011;39295;45.534;20.034;2022-12-07T16:11:33;298.10;;;98.00;;
53401;SDS011;39295;45.534;20.034;2022-12-07T16:13:59;347.70;;;119.43;;
53401;SDS011;39295;45.534;20.034;2022-12-07T16:16:26;414.58;;;142.98;;
53401;SDS011;39295;45.534;20.034;2022-12-07T16:18:52;326.20;;;112.80;;
53401;SDS011;39295;45.534;20.034;2022-12-07T16:21:19;185.50;;;68.63;;
53401;SDS011;39295;45.534;20.034;2022-12-07T16:23:45;285.83;;;93.15;;
53401;SDS011;39295;45.534;20.034;2022-12-07T16:26:12;404.60;;;130.25;;
53401;SDS011;39295;45.534;20.034;2022-12-07T16:28:39;399.42;;;133.98;;
53401;SDS011;39295;45.534;20.034;2022-12-07T16:31:06;267.92;;;97.03;;
53401;SDS011;39295;45.534;20.034;2022-12-07T16:33:36;329.75;;;114.28;;
53401;SDS011;39295;45.534;20.034;2022-12-07T16:36:03;224.38;;;89.35;;
53401;SDS011;39295;45.534;20.034;2022-12-07T16:38:29;375.00;;;133.20;;
53401;SDS011;39295;45.534;20.034;2022-12-07T16:40:55;358.63;;;130.07;;
53401;SDS011;39295;45.534;20.034;2022-12-07T16:43:22;304.02;;;109.97;;
53401;SDS011;39295;45.534;20.034;2022-12-07T16:45:48;261.05;;;97.57;;
53401;SDS011;39295;45.534;20.034;2022-12-07T16:48:14;159.70;;;60.47;;
53401;SDS011;39295;45.534;20.034;2022-12-07T16:50:41;72.10;;;36.40;;
53401;SDS011;39295;45.534;20.034;2022-12-07T16:53:11;82.65;;;37.65;;
53401;SDS011;39295;45.534;20.034;2022-12-07T16:55:37;172.18;;;57.13;;
53401;SDS011;39295;45.534;20.034;2022-12-07T16:58:04;192.75;;;59.22;;
53401;SDS011;39295;45.534;20.034;2022-12-07T17:00:30;225.18;;;76.13;;
53401;SDS011;39295;45.534;20.034;2022-12-07T17:02:56;177.63;;;58.60;;
53401;SDS011;39295;45.534;20.034;2022-12-07T17:05:22;172.40;;;61.97;;
53401;SDS011;39295;45.534;20.034;2022-12-07T17:07:49;184.98;;;62.13;;